Terminal Aerodrome Forecast
Issued by NWS

Home | Current Version | Previous Version | Text Only | Print | Product List | Glossary On
Versions: 1 2 3 4 5 6 7 8 9 10 11 12 13 14 15
128
FTUS43 KMQT 041133
TAFCMX
TAF
KCMX 041133Z 0412/0512 36015G23KT P6SM BKN020
     FM041700 36015G22KT P6SM BKN025
     FM041900 36015G22KT P6SM SCT030
     FM042100 36013G20KT P6SM SKC
     FM050000 35007KT P6SM SKC=

USA.gov is the U.S. government's official web portal to all federal, state and local government web resources and services.